sensor_id;sensor_type;location;lat;lon;timestamp;P1;durP1;ratioP1;P2;durP2;ratioP2
5612;SDS011;63463;53.586;9.928;2023-04-06T00:01:17;12.00;;;9.20;;
5612;SDS011;63463;53.586;9.928;2023-04-06T00:03:47;12.57;;;8.90;;
5612;SDS011;63463;53.586;9.928;2023-04-06T00:06:14;10.80;;;9.03;;
5612;SDS011;63463;53.586;9.928;2023-04-06T00:09:00;10.03;;;9.03;;
5612;SDS011;63463;53.586;9.928;2023-04-06T00:11:37;8.97;;;8.17;;
5612;SDS011;63463;53.586;9.928;2023-04-06T00:14:04;10.87;;;9.17;;
5612;SDS011;63463;53.586;9.928;2023-04-06T00:16:32;10.73;;;9.50;;
5612;SDS011;63463;53.586;9.928;2023-04-06T00:19:41;9.67;;;8.53;;
5612;SDS011;63463;53.586;9.928;2023-04-06T00:21:54;11.63;;;8.30;;
5612;SDS011;63463;53.586;9.928;2023-04-06T00:24:21;9.33;;;8.40;;
5612;SDS011;63463;53.586;9.928;2023-04-06T00:27:00;11.63;;;9.23;;
5612;SDS011;63463;53.586;9.928;2023-04-06T00:29:26;13.00;;;9.00;;
5612;SDS011;63463;53.586;9.928;2023-04-06T00:31:53;9.63;;;8.57;;
5612;SDS011;63463;53.586;9.928;2023-04-06T00:34:24;9.20;;;8.23;;
5612;SDS011;63463;53.586;9.928;2023-04-06T00:36:50;14.97;;;8.90;;
5612;SDS011;63463;53.586;9.928;2023-04-06T00:39:17;10.63;;;8.33;;
5612;SDS011;63463;53.586;9.928;2023-04-06T00:42:03;9.10;;;8.30;;
5612;SDS011;63463;53.586;9.928;2023-04-06T00:44:33;9.70;;;8.70;;
5612;SDS011;63463;53.586;9.928;2023-04-06T00:47:09;8.70;;;8.00;;
5612;SDS011;63463;53.586;9.928;2023-04-06T00:49:39;9.70;;;8.80;;
5612;SDS011;63463;53.586;9.928;2023-04-06T00:52:09;12.57;;;8.87;;
5612;SDS011;63463;53.586;9.928;2023-04-06T00:54:38;9.00;;;8.20;;
5612;SDS011;63463;53.586;9.928;2023-04-06T00:57:04;11.27;;;8.87;;
5612;SDS011;63463;53.586;9.928;2023-04-06T00:59:47;10.33;;;8.33;;
5612;SDS011;63463;53.586;9.928;2023-04-06T01:02:28;9.37;;;8.53;;
5612;SDS011;63463;53.586;9.928;2023-04-06T01:04:55;13.70;;;8.77;;
5612;SDS011;63463;53.586;9.928;2023-04-06T01:07:21;10.23;;;9.17;;
5612;SDS011;63463;53.586;9.928;2023-04-06T01:09:47;9.67;;;8.23;;
5612;SDS011;63463;53.586;9.928;2023-04-06T01:12:14;11.17;;;8.70;;
5612;SDS011;63463;53.586;9.928;2023-04-06T01:14:44;9.47;;;8.53;;
5612;SDS011;63463;53.586;9.928;2023-04-06T01:17:29;9.90;;;8.83;;
5612;SDS011;63463;53.586;9.928;2023-04-06T01:19:55;12.03;;;9.33;;
5612;SDS011;63463;53.586;9.928;2023-04-06T01:22:37;10.77;;;8.57;;
5612;SDS011;63463;53.586;9.928;2023-04-06T01:28:02;10.53;;;8.70;;
5612;SDS011;63463;53.586;9.928;2023-04-06T01:30:35;16.20;;;9.20;;
5612;SDS011;63463;53.586;9.928;2023-04-06T01:33:02;9.40;;;8.50;;
5612;SDS011;63463;53.586;9.928;2023-04-06T01:40:49;14.27;;;8.80;;
5612;SDS011;63463;53.586;9.928;2023-04-06T01:43:15;11.83;;;8.50;;
5612;SDS011;63463;53.586;9.928;2023-04-06T01:45:42;10.50;;;9.50;;
5612;SDS011;63463;53.586;9.928;2023-04-06T01:48:09;14.07;;;10.07;;
5612;SDS011;63463;53.586;9.928;2023-04-06T01:50:35;9.53;;;8.27;;
5612;SDS011;63463;53.586;9.928;2023-04-06T01:53:04;9.93;;;8.93;;
5612;SDS011;63463;53.586;9.928;2023-04-06T01:55:34;10.27;;;9.07;;
5612;SDS011;63463;53.586;9.928;2023-04-06T01:58:00;10.80;;;9.50;;
5612;SDS011;63463;53.586;9.928;2023-04-06T02:00:33;15.00;;;8.80;;
5612;SDS011;63463;53.586;9.928;2023-04-06T02:03:04;10.97;;;8.30;;
5612;SDS011;63463;53.586;9.928;2023-04-06T02:05:44;12.23;;;8.80;;
5612;SDS011;63463;53.586;9.928;2023-04-06T02:08:13;16.10;;;9.57;;
5612;SDS011;63463;53.586;9.928;2023-04-06T02:10:41;9.67;;;8.77;;
5612;SDS011;63463;53.586;9.928;2023-04-06T02:13:07;10.03;;;8.93;;
5612;SDS011;63463;53.586;9.928;2023-04-06T02:15:43;9.67;;;8.73;;
5612;SDS011;63463;53.586;9.928;2023-04-06T02:18:12;14.63;;;9.27;;
5612;SDS011;63463;53.586;9.928;2023-04-06T02:21:00;8.93;;;8.13;;
5612;SDS011;63463;53.586;9.928;2023-04-06T02:23:29;10.90;;;9.40;;
5612;SDS011;63463;53.586;9.928;2023-04-06T02:29:00;10.10;;;8.80;;
5612;SDS011;63463;53.586;9.928;2023-04-06T02:31:27;10.23;;;9.13;;
5612;SDS011;63463;53.586;9.928;2023-04-06T02:33:53;11.77;;;9.60;;
5612;SDS011;63463;53.586;9.928;2023-04-06T02:36:20;12.33;;;9.60;;
5612;SDS011;63463;53.586;9.928;2023-04-06T02:38:54;17.87;;;9.53;;
5612;SDS011;63463;53.586;9.928;2023-04-06T02:41:23;14.10;;;9.23;;
5612;SDS011;63463;53.586;9.928;2023-04-06T02:43:54;14.63;;;9.43;;
5612;SDS011;63463;53.586;9.928;2023-04-06T02:46:23;10.63;;;9.50;;
5612;SDS011;63463;53.586;9.928;2023-04-06T02:48:54;9.70;;;8.87;;
5612;SDS011;63463;53.586;9.928;2023-04-06T02:51:28;13.27;;;9.53;;
5612;SDS011;63463;53.586;9.928;2023-04-06T02:53:54;9.90;;;8.90;;
5612;SDS011;63463;53.586;9.928;2023-04-06T02:56:24;9.33;;;8.33;;
5612;SDS011;63463;53.586;9.928;2023-04-06T02:58:51;11.53;;;9.10;;
5612;SDS011;63463;53.586;9.928;2023-04-06T03:01:17;11.20;;;9.50;;
5612;SDS011;63463;53.586;9.928;2023-04-06T03:03:43;10.33;;;9.23;;
5612;SDS011;63463;53.586;9.928;2023-04-06T03:06:09;11.33;;;9.87;;
5612;SDS011;63463;53.586;9.928;2023-04-06T03:08:36;10.73;;;9.73;;
5612;SDS011;63463;53.586;9.928;2023-04-06T03:11:05;12.60;;;9.53;;
5612;SDS011;63463;53.586;9.928;2023-04-06T03:13:53;19.23;;;10.17;;
5612;SDS011;63463;53.586;9.928;2023-04-06T03:16:18;9.73;;;8.77;;
5612;SDS011;63463;53.586;9.928;2023-04-06T03:18:46;10.53;;;9.50;;
5612;SDS011;63463;53.586;9.928;2023-04-06T03:21:15;10.00;;;8.90;;
5612;SDS011;63463;53.586;9.928;2023-04-06T03:23:42;11.17;;;9.90;;
5612;SDS011;63463;53.586;9.928;2023-04-06T03:26:14;13.23;;;9.93;;
5612;SDS011;63463;53.586;9.928;2023-04-06T03:28:47;19.20;;;9.90;;
5612;SDS011;63463;53.586;9.928;2023-04-06T03:31:27;14.83;;;9.60;;
5612;SDS011;63463;53.586;9.928;2023-04-06T03:33:53;11.47;;;10.27;;
5612;SDS011;63463;53.586;9.928;2023-04-06T03:36:23;11.77;;;10.47;;
5612;SDS011;63463;53.586;9.928;2023-04-06T03:38:51;11.63;;;9.30;;
5612;SDS011;63463;53.586;9.928;2023-04-06T03:41:18;16.33;;;10.03;;
5612;SDS011;63463;53.586;9.928;2023-04-06T03:43:44;10.87;;;9.87;;
5612;SDS011;63463;53.586;9.928;2023-04-06T03:46:18;13.70;;;10.57;;
5612;SDS011;63463;53.586;9.928;2023-04-06T03:48:52;13.43;;;9.93;;
5612;SDS011;63463;53.586;9.928;2023-04-06T03:51:18;10.53;;;9.50;;
5612;SDS011;63463;53.586;9.928;2023-04-06T03:54:09;10.43;;;9.23;;
5612;SDS011;63463;53.586;9.928;2023-04-06T03:56:39;12.23;;;9.80;;
5612;SDS011;63463;53.586;9.928;2023-04-06T03:59:08;13.43;;;10.73;;
5612;SDS011;63463;53.586;9.928;2023-04-06T04:01:35;13.50;;;10.20;;
5612;SDS011;63463;53.586;9.928;2023-04-06T04:04:01;12.37;;;10.00;;
5612;SDS011;63463;53.586;9.928;2023-04-06T04:06:28;13.83;;;10.23;;
5612;SDS011;63463;53.586;9.928;2023-04-06T04:08:58;10.63;;;9.60;;
5612;SDS011;63463;53.586;9.928;2023-04-06T04:11:27;19.10;;;9.90;;
5612;SDS011;63463;53.586;9.928;2023-04-06T04:13:53;14.40;;;10.60;;
5612;SDS011;63463;53.586;9.928;2023-04-06T04:16:29;14.30;;;10.07;;
5612;SDS011;63463;53.586;9.928;2023-04-06T04:18:55;11.73;;;10.20;;
5612;SDS011;63463;53.586;9.928;2023-04-06T04:21:25;17.00;;;10.33;;
5612;SDS011;63463;53.586;9.928;2023-04-06T04:23:51;16.60;;;9.80;;
5612;SDS011;63463;53.586;9.928;2023-04-06T04:26:28;12.03;;;9.23;;
5612;SDS011;63463;53.586;9.928;2023-04-06T04:29:00;16.10;;;10.80;;
5612;SDS011;63463;53.586;9.928;2023-04-06T04:31:28;13.00;;;10.00;;
5612;SDS011;63463;53.586;9.928;2023-04-06T04:37:11;12.20;;;10.40;;
5612;SDS011;63463;53.586;9.928;2023-04-06T04:39:37;14.63;;;11.17;;
5612;SDS011;63463;53.586;9.928;2023-04-06T04:42:03;14.60;;;10.33;;
5612;SDS011;63463;53.586;9.928;2023-04-06T04:44:29;17.07;;;11.27;;
5612;SDS011;63463;53.586;9.928;2023-04-06T04:47:08;15.63;;;10.63;;
5612;SDS011;63463;53.586;9.928;2023-04-06T04:52:28;17.10;;;10.67;;
5612;SDS011;63463;53.586;9.928;2023-04-06T04:54:54;20.80;;;11.33;;
5612;SDS011;63463;53.586;9.928;2023-04-06T04:57:29;12.07;;;10.77;;
5612;SDS011;63463;53.586;9.928;2023-04-06T05:00:23;14.23;;;10.77;;
5612;SDS011;63463;53.586;9.928;2023-04-06T05:05:52;17.00;;;11.00;;
5612;SDS011;63463;53.586;9.928;2023-04-06T05:08:20;13.70;;;10.60;;
5612;SDS011;63463;53.586;9.928;2023-04-06T05:10:50;13.37;;;10.50;;
5612;SDS011;63463;53.586;9.928;2023-04-06T05:13:19;20.30;;;10.70;;
5612;SDS011;63463;53.586;9.928;2023-04-06T05:18:29;16.10;;;10.37;;
5612;SDS011;63463;53.586;9.928;2023-04-06T05:20:57;18.50;;;11.43;;
5612;SDS011;63463;53.586;9.928;2023-04-06T05:23:24;15.90;;;11.27;;
5612;SDS011;63463;53.586;9.928;2023-04-06T05:25:50;20.37;;;10.80;;
5612;SDS011;63463;53.586;9.928;2023-04-06T05:29:02;21.03;;;11.60;;
5612;SDS011;63463;53.586;9.928;2023-04-06T05:31:09;11.70;;;10.00;;
5612;SDS011;63463;53.586;9.928;2023-04-06T05:33:43;13.27;;;10.00;;
5612;SDS011;63463;53.586;9.928;2023-04-06T05:36:37;32.20;;;11.60;;
5612;SDS011;63463;53.586;9.928;2023-04-06T05:39:05;17.13;;;11.30;;
5612;SDS011;63463;53.586;9.928;2023-04-06T05:41:39;13.70;;;11.17;;
5612;SDS011;63463;53.586;9.928;2023-04-06T05:44:07;14.10;;;10.90;;
5612;SDS011;63463;53.586;9.928;2023-04-06T05:46:38;12.30;;;11.07;;
5612;SDS011;63463;53.586;9.928;2023-04-06T05:49:07;16.17;;;11.00;;
5612;SDS011;63463;53.586;9.928;2023-04-06T05:51:35;13.60;;;10.70;;
5612;SDS011;63463;53.586;9.928;2023-04-06T05:54:07;14.20;;;11.07;;
5612;SDS011;63463;53.586;9.928;2023-04-06T05:56:34;13.80;;;10.30;;
5612;SDS011;63463;53.586;9.928;2023-04-06T05:59:00;18.37;;;11.57;;
5612;SDS011;63463;53.586;9.928;2023-04-06T06:04:05;15.93;;;11.50;;
5612;SDS011;63463;53.586;9.928;2023-04-06T06:06:38;13.13;;;11.43;;
5612;SDS011;63463;53.586;9.928;2023-04-06T06:09:07;24.93;;;12.37;;
5612;SDS011;63463;53.586;9.928;2023-04-06T06:11:39;19.73;;;11.77;;
5612;SDS011;63463;53.586;9.928;2023-04-06T06:14:06;32.63;;;11.73;;
5612;SDS011;63463;53.586;9.928;2023-04-06T06:16:47;17.70;;;12.17;;
5612;SDS011;63463;53.586;9.928;2023-04-06T06:19:23;16.27;;;11.10;;
5612;SDS011;63463;53.586;9.928;2023-04-06T06:21:55;22.00;;;12.73;;
5612;SDS011;63463;53.586;9.928;2023-04-06T06:24:44;17.40;;;13.37;;
5612;SDS011;63463;53.586;9.928;2023-04-06T06:27:16;26.73;;;14.40;;
5612;SDS011;63463;53.586;9.928;2023-04-06T06:29:44;23.20;;;12.87;;
5612;SDS011;63463;53.586;9.928;2023-04-06T06:32:18;20.53;;;13.10;;
5612;SDS011;63463;53.586;9.928;2023-04-06T06:34:45;20.67;;;12.33;;
5612;SDS011;63463;53.586;9.928;2023-04-06T06:37:11;15.10;;;11.63;;
5612;SDS011;63463;53.586;9.928;2023-04-06T06:42:35;26.77;;;13.23;;
5612;SDS011;63463;53.586;9.928;2023-04-06T06:45:34;27.10;;;13.03;;
5612;SDS011;63463;53.586;9.928;2023-04-06T06:48:04;19.30;;;12.60;;
5612;SDS011;63463;53.586;9.928;2023-04-06T06:50:40;16.13;;;12.57;;
5612;SDS011;63463;53.586;9.928;2023-04-06T06:55:46;13.30;;;11.00;;
5612;SDS011;63463;53.586;9.928;2023-04-06T06:58:33;13.27;;;11.30;;
5612;SDS011;63463;53.586;9.928;2023-04-06T07:04:10;16.50;;;11.40;;
5612;SDS011;63463;53.586;9.928;2023-04-06T07:06:40;13.63;;;11.00;;
5612;SDS011;63463;53.586;9.928;2023-04-06T07:09:11;21.53;;;11.50;;
5612;SDS011;63463;53.586;9.928;2023-04-06T07:11:43;15.90;;;10.40;;
5612;SDS011;63463;53.586;9.928;2023-04-06T07:14:19;17.73;;;9.50;;
5612;SDS011;63463;53.586;9.928;2023-04-06T07:16:45;14.27;;;9.30;;
5612;SDS011;63463;53.586;9.928;2023-04-06T07:21:58;14.43;;;10.53;;
5612;SDS011;63463;53.586;9.928;2023-04-06T07:24:30;15.90;;;10.87;;
5612;SDS011;63463;53.586;9.928;2023-04-06T07:27:20;21.97;;;10.50;;
5612;SDS011;63463;53.586;9.928;2023-04-06T07:29:59;32.03;;;10.13;;
5612;SDS011;63463;53.586;9.928;2023-04-06T07:32:31;24.10;;;10.10;;
5612;SDS011;63463;53.586;9.928;2023-04-06T07:35:07;14.30;;;9.70;;
5612;SDS011;63463;53.586;9.928;2023-04-06T07:37:38;11.17;;;9.73;;
5612;SDS011;63463;53.586;9.928;2023-04-06T07:43:18;12.50;;;9.60;;
5612;SDS011;63463;53.586;9.928;2023-04-06T07:45:47;11.90;;;9.13;;
5612;SDS011;63463;53.586;9.928;2023-04-06T07:48:38;20.60;;;10.27;;
5612;SDS011;63463;53.586;9.928;2023-04-06T07:51:14;10.90;;;8.77;;
5612;SDS011;63463;53.586;9.928;2023-04-06T07:53:47;22.63;;;9.83;;
5612;SDS011;63463;53.586;9.928;2023-04-06T07:56:25;11.60;;;9.50;;
5612;SDS011;63463;53.586;9.928;2023-04-06T07:58:52;22.27;;;9.70;;
5612;SDS011;63463;53.586;9.928;2023-04-06T08:04:48;28.13;;;9.63;;
5612;SDS011;63463;53.586;9.928;2023-04-06T08:07:27;12.93;;;8.90;;
5612;SDS011;63463;53.586;9.928;2023-04-06T08:10:23;10.90;;;8.83;;
5612;SDS011;63463;53.586;9.928;2023-04-06T08:12:59;12.23;;;8.40;;
5612;SDS011;63463;53.586;9.928;2023-04-06T08:15:34;19.53;;;8.77;;
5612;SDS011;63463;53.586;9.928;2023-04-06T08:18:10;14.30;;;8.13;;
5612;SDS011;63463;53.586;9.928;2023-04-06T08:20:36;9.97;;;8.53;;
5612;SDS011;63463;53.586;9.928;2023-04-06T08:23:02;12.83;;;8.53;;
5612;SDS011;63463;53.586;9.928;2023-04-06T08:25:33;11.67;;;9.37;;
5612;SDS011;63463;53.586;9.928;2023-04-06T08:28:02;13.40;;;8.33;;
5612;SDS011;63463;53.586;9.928;2023-04-06T08:30:31;12.83;;;9.40;;
5612;SDS011;63463;53.586;9.928;2023-04-06T08:33:01;13.77;;;8.97;;
5612;SDS011;63463;53.586;9.928;2023-04-06T08:35:29;11.30;;;8.50;;
5612;SDS011;63463;53.586;9.928;2023-04-06T08:37:56;13.03;;;9.07;;
5612;SDS011;63463;53.586;9.928;2023-04-06T08:40:30;15.70;;;9.13;;
5612;SDS011;63463;53.586;9.928;2023-04-06T08:43:06;10.97;;;8.97;;
5612;SDS011;63463;53.586;9.928;2023-04-06T08:45:41;9.80;;;8.80;;
5612;SDS011;63463;53.586;9.928;2023-04-06T08:48:20;13.63;;;9.10;;
5612;SDS011;63463;53.586;9.928;2023-04-06T08:50:50;10.03;;;8.60;;
5612;SDS011;63463;53.586;9.928;2023-04-06T08:53:20;10.80;;;8.20;;
5612;SDS011;63463;53.586;9.928;2023-04-06T08:55:47;9.43;;;8.37;;
5612;SDS011;63463;53.586;9.928;2023-04-06T08:58:14;14.50;;;8.83;;
5612;SDS011;63463;53.586;9.928;2023-04-06T09:00:44;8.60;;;7.70;;
5612;SDS011;63463;53.586;9.928;2023-04-06T09:03:11;10.10;;;7.93;;
5612;SDS011;63463;53.586;9.928;2023-04-06T09:05:40;7.87;;;7.13;;
5612;SDS011;63463;53.586;9.928;2023-04-06T09:08:09;16.60;;;7.97;;
5612;SDS011;63463;53.586;9.928;2023-04-06T09:11:12;8.90;;;7.70;;
5612;SDS011;63463;53.586;9.928;2023-04-06T09:13:54;10.87;;;7.47;;
5612;SDS011;63463;53.586;9.928;2023-04-06T09:16:20;9.27;;;7.93;;
5612;SDS011;63463;53.586;9.928;2023-04-06T09:18:49;8.63;;;7.10;;
5612;SDS011;63463;53.586;9.928;2023-04-06T09:21:22;9.60;;;8.43;;
5612;SDS011;63463;53.586;9.928;2023-04-06T09:24:00;10.27;;;7.67;;
5612;SDS011;63463;53.586;9.928;2023-04-06T09:26:32;7.10;;;6.40;;
5612;SDS011;63463;53.586;9.928;2023-04-06T09:28:59;7.93;;;6.90;;
5612;SDS011;63463;53.586;9.928;2023-04-06T09:31:30;7.47;;;6.77;;
5612;SDS011;63463;53.586;9.928;2023-04-06T09:33:58;12.80;;;7.07;;
5612;SDS011;63463;53.586;9.928;2023-04-06T09:36:36;7.73;;;6.20;;
5612;SDS011;63463;53.586;9.928;2023-04-06T09:39:25;8.57;;;6.83;;
5612;SDS011;63463;53.586;9.928;2023-04-06T09:42:09;7.37;;;6.13;;
5612;SDS011;63463;53.586;9.928;2023-04-06T09:44:40;9.87;;;6.70;;
5612;SDS011;63463;53.586;9.928;2023-04-06T09:47:10;7.70;;;6.23;;
5612;SDS011;63463;53.586;9.928;2023-04-06T09:49:39;10.07;;;7.20;;
5612;SDS011;63463;53.586;9.928;2023-04-06T09:52:14;8.17;;;6.93;;
5612;SDS011;63463;53.586;9.928;2023-04-06T09:54:49;10.03;;;6.63;;
5612;SDS011;63463;53.586;9.928;2023-04-06T09:57:28;7.10;;;6.07;;
5612;SDS011;63463;53.586;9.928;2023-04-06T10:00:13;6.43;;;5.77;;
5612;SDS011;63463;53.586;9.928;2023-04-06T10:02:47;7.90;;;5.70;;
5612;SDS011;63463;53.586;9.928;2023-04-06T10:05:20;6.53;;;5.60;;
5612;SDS011;63463;53.586;9.928;2023-04-06T10:07:50;10.03;;;6.10;;
5612;SDS011;63463;53.586;9.928;2023-04-06T10:10:28;10.30;;;5.70;;
5612;SDS011;63463;53.586;9.928;2023-04-06T10:12:57;6.13;;;5.43;;
5612;SDS011;63463;53.586;9.928;2023-04-06T10:15:33;8.10;;;5.63;;
5612;SDS011;63463;53.586;9.928;2023-04-06T10:18:07;6.60;;;5.50;;
5612;SDS011;63463;53.586;9.928;2023-04-06T10:23:57;6.23;;;5.73;;
5612;SDS011;63463;53.586;9.928;2023-04-06T10:26:31;8.00;;;6.40;;
5612;SDS011;63463;53.586;9.928;2023-04-06T10:29:02;7.87;;;5.30;;
5612;SDS011;63463;53.586;9.928;2023-04-06T10:31:28;9.13;;;6.10;;
5612;SDS011;63463;53.586;9.928;2023-04-06T10:34:18;10.13;;;5.87;;
5612;SDS011;63463;53.586;9.928;2023-04-06T10:36:46;8.37;;;5.87;;
5612;SDS011;63463;53.586;9.928;2023-04-06T10:41:52;7.90;;;5.90;;
5612;SDS011;63463;53.586;9.928;2023-04-06T10:44:22;10.90;;;6.10;;
5612;SDS011;63463;53.586;9.928;2023-04-06T10:46:52;7.13;;;5.87;;
5612;SDS011;63463;53.586;9.928;2023-04-06T10:49:24;8.53;;;5.73;;
5612;SDS011;63463;53.586;9.928;2023-04-06T10:54:34;7.10;;;6.17;;
5612;SDS011;63463;53.586;9.928;2023-04-06T10:57:09;6.77;;;5.50;;
5612;SDS011;63463;53.586;9.928;2023-04-06T10:59:41;8.60;;;6.50;;
5612;SDS011;63463;53.586;9.928;2023-04-06T11:02:08;9.67;;;5.80;;
5612;SDS011;63463;53.586;9.928;2023-04-06T11:04:35;10.23;;;6.10;;
5612;SDS011;63463;53.586;9.928;2023-04-06T11:07:11;6.23;;;5.50;;
5612;SDS011;63463;53.586;9.928;2023-04-06T11:09:39;6.40;;;5.80;;
5612;SDS011;63463;53.586;9.928;2023-04-06T11:12:06;7.00;;;6.30;;
5612;SDS011;63463;53.586;9.928;2023-04-06T11:14:34;15.20;;;6.93;;
5612;SDS011;63463;53.586;9.928;2023-04-06T11:17:04;8.47;;;6.67;;
5612;SDS011;63463;53.586;9.928;2023-04-06T11:19:41;7.70;;;5.80;;
5612;SDS011;63463;53.586;9.928;2023-04-06T11:22:08;10.00;;;6.67;;
5612;SDS011;63463;53.586;9.928;2023-04-06T11:24:36;15.00;;;6.80;;
5612;SDS011;63463;53.586;9.928;2023-04-06T11:27:03;8.63;;;6.07;;
5612;SDS011;63463;53.586;9.928;2023-04-06T11:29:50;10.23;;;6.30;;
5612;SDS011;63463;53.586;9.928;2023-04-06T11:32:21;12.33;;;6.23;;
5612;SDS011;63463;53.586;9.928;2023-04-06T11:34:51;12.03;;;7.50;;
5612;SDS011;63463;53.586;9.928;2023-04-06T11:37:19;8.50;;;6.53;;
5612;SDS011;63463;53.586;9.928;2023-04-06T11:39:54;10.70;;;6.70;;
5612;SDS011;63463;53.586;9.928;2023-04-06T11:42:36;8.40;;;6.10;;
5612;SDS011;63463;53.586;9.928;2023-04-06T11:45:02;10.03;;;7.23;;
5612;SDS011;63463;53.586;9.928;2023-04-06T11:47:29;8.53;;;6.53;;
5612;SDS011;63463;53.586;9.928;2023-04-06T11:49:55;9.17;;;6.57;;
5612;SDS011;63463;53.586;9.928;2023-04-06T11:52:26;9.40;;;6.00;;
5612;SDS011;63463;53.586;9.928;2023-04-06T11:54:56;11.07;;;6.43;;
5612;SDS011;63463;53.586;9.928;2023-04-06T11:57:25;10.00;;;6.93;;
5612;SDS011;63463;53.586;9.928;2023-04-06T11:59:53;8.60;;;6.60;;
5612;SDS011;63463;53.586;9.928;2023-04-06T12:02:26;9.37;;;6.77;;
5612;SDS011;63463;53.586;9.928;2023-04-06T12:04:54;8.43;;;6.30;;
5612;SDS011;63463;53.586;9.928;2023-04-06T12:07:21;10.53;;;6.90;;
5612;SDS011;63463;53.586;9.928;2023-04-06T12:09:47;9.23;;;6.73;;
5612;SDS011;63463;53.586;9.928;2023-04-06T12:12:19;8.70;;;6.10;;
5612;SDS011;63463;53.586;9.928;2023-04-06T12:14:48;8.90;;;6.20;;
5612;SDS011;63463;53.586;9.928;2023-04-06T12:17:15;7.37;;;6.37;;
5612;SDS011;63463;53.586;9.928;2023-04-06T12:19:43;24.00;;;7.00;;
5612;SDS011;63463;53.586;9.928;2023-04-06T12:22:09;9.73;;;7.30;;
5612;SDS011;63463;53.586;9.928;2023-04-06T12:24:45;11.47;;;6.97;;
5612;SDS011;63463;53.586;9.928;2023-04-06T12:27:14;8.23;;;6.17;;
5612;SDS011;63463;53.586;9.928;2023-04-06T12:29:40;10.33;;;5.80;;
5612;SDS011;63463;53.586;9.928;2023-04-06T12:32:10;10.67;;;5.87;;
5612;SDS011;63463;53.586;9.928;2023-04-06T12:34:38;10.43;;;6.47;;
5612;SDS011;63463;53.586;9.928;2023-04-06T12:37:04;8.50;;;6.40;;
5612;SDS011;63463;53.586;9.928;2023-04-06T12:39:31;10.13;;;6.70;;
5612;SDS011;63463;53.586;9.928;2023-04-06T12:42:22;9.40;;;6.87;;
5612;SDS011;63463;53.586;9.928;2023-04-06T12:45:10;10.00;;;6.87;;
5612;SDS011;63463;53.586;9.928;2023-04-06T12:47:36;9.07;;;6.00;;
5612;SDS011;63463;53.586;9.928;2023-04-06T12:50:03;8.60;;;6.70;;
5612;SDS011;63463;53.586;9.928;2023-04-06T12:52:34;8.00;;;6.00;;
5612;SDS011;63463;53.586;9.928;2023-04-06T12:55:10;10.03;;;6.13;;
5612;SDS011;63463;53.586;9.928;2023-04-06T12:57:36;9.70;;;6.90;;
5612;SDS011;63463;53.586;9.928;2023-04-06T13:00:04;10.67;;;6.80;;
5612;SDS011;63463;53.586;9.928;2023-04-06T13:02:40;13.23;;;7.83;;
5612;SDS011;63463;53.586;9.928;2023-04-06T13:05:12;13.17;;;7.50;;
5612;SDS011;63463;53.586;9.928;2023-04-06T13:07:46;13.10;;;6.93;;
5612;SDS011;63463;53.586;9.928;2023-04-06T13:10:15;10.50;;;6.43;;
5612;SDS011;63463;53.586;9.928;2023-04-06T13:12:44;10.27;;;7.20;;
5612;SDS011;63463;53.586;9.928;2023-04-06T13:15:11;9.50;;;6.80;;
5612;SDS011;63463;53.586;9.928;2023-04-06T13:17:37;10.20;;;6.23;;
5612;SDS011;63463;53.586;9.928;2023-04-06T13:20:04;9.37;;;6.80;;
5612;SDS011;63463;53.586;9.928;2023-04-06T13:22:31;11.00;;;7.73;;
5612;SDS011;63463;53.586;9.928;2023-04-06T13:24:57;14.60;;;7.57;;
5612;SDS011;63463;53.586;9.928;2023-04-06T13:27:26;11.80;;;6.50;;
5612;SDS011;63463;53.586;9.928;2023-04-06T13:29:58;9.97;;;7.50;;
5612;SDS011;63463;53.586;9.928;2023-04-06T13:32:25;16.63;;;7.50;;
5612;SDS011;63463;53.586;9.928;2023-04-06T13:34:54;14.13;;;7.53;;
5612;SDS011;63463;53.586;9.928;2023-04-06T13:37:42;12.93;;;7.73;;
5612;SDS011;63463;53.586;9.928;2023-04-06T13:40:12;13.10;;;7.40;;
5612;SDS011;63463;53.586;9.928;2023-04-06T13:42:42;12.07;;;8.00;;
5612;SDS011;63463;53.586;9.928;2023-04-06T13:45:11;9.53;;;6.40;;
5612;SDS011;63463;53.586;9.928;2023-04-06T13:47:37;11.53;;;7.17;;
5612;SDS011;63463;53.586;9.928;2023-04-06T13:50:04;19.20;;;8.00;;
5612;SDS011;63463;53.586;9.928;2023-04-06T13:52:32;10.03;;;7.20;;
5612;SDS011;63463;53.586;9.928;2023-04-06T13:54:58;8.50;;;6.67;;
5612;SDS011;63463;53.586;9.928;2023-04-06T13:57:24;11.17;;;7.90;;
5612;SDS011;63463;53.586;9.928;2023-04-06T13:59:51;11.13;;;8.00;;
5612;SDS011;63463;53.586;9.928;2023-04-06T14:02:17;15.30;;;8.53;;
5612;SDS011;63463;53.586;9.928;2023-04-06T14:04:51;10.60;;;6.40;;
5612;SDS011;63463;53.586;9.928;2023-04-06T14:09:55;8.33;;;6.03;;
5612;SDS011;63463;53.586;9.928;2023-04-06T14:12:22;10.07;;;6.77;;
5612;SDS011;63463;53.586;9.928;2023-04-06T14:14:48;16.60;;;7.97;;
5612;SDS011;63463;53.586;9.928;2023-04-06T14:17:15;11.63;;;8.00;;
5612;SDS011;63463;53.586;9.928;2023-04-06T14:19:49;8.80;;;6.43;;
5612;SDS011;63463;53.586;9.928;2023-04-06T14:22:18;9.20;;;6.80;;
5612;SDS011;63463;53.586;9.928;2023-04-06T14:24:54;16.63;;;7.20;;
5612;SDS011;63463;53.586;9.928;2023-04-06T14:27:21;6.73;;;5.90;;
5612;SDS011;63463;53.586;9.928;2023-04-06T14:29:50;12.20;;;6.87;;
5612;SDS011;63463;53.586;9.928;2023-04-06T14:32:30;13.40;;;7.70;;
5612;SDS011;63463;53.586;9.928;2023-04-06T14:35:25;10.77;;;7.63;;
5612;SDS011;63463;53.586;9.928;2023-04-06T14:37:58;10.77;;;7.83;;
5612;SDS011;63463;53.586;9.928;2023-04-06T14:40:35;9.93;;;7.47;;
5612;SDS011;63463;53.586;9.928;2023-04-06T14:43:02;11.67;;;7.80;;
5612;SDS011;63463;53.586;9.928;2023-04-06T14:45:32;14.27;;;7.77;;
5612;SDS011;63463;53.586;9.928;2023-04-06T14:48:02;9.30;;;7.27;;
5612;SDS011;63463;53.586;9.928;2023-04-06T14:50:28;9.53;;;6.57;;
5612;SDS011;63463;53.586;9.928;2023-04-06T14:52:54;13.00;;;8.30;;
5612;SDS011;63463;53.586;9.928;2023-04-06T14:55:20;13.80;;;8.07;;
5612;SDS011;63463;53.586;9.928;2023-04-06T14:57:47;19.90;;;8.13;;
5612;SDS011;63463;53.586;9.928;2023-04-06T15:00:21;10.87;;;8.10;;
5612;SDS011;63463;53.586;9.928;2023-04-06T15:02:55;10.53;;;7.90;;
5612;SDS011;63463;53.586;9.928;2023-04-06T15:05:32;10.77;;;8.30;;
5612;SDS011;63463;53.586;9.928;2023-04-06T15:08:02;13.47;;;8.63;;
5612;SDS011;63463;53.586;9.928;2023-04-06T15:10:42;9.67;;;7.13;;
5612;SDS011;63463;53.586;9.928;2023-04-06T15:13:12;11.73;;;8.67;;
5612;SDS011;63463;53.586;9.928;2023-04-06T15:15:41;14.83;;;7.97;;
5612;SDS011;63463;53.586;9.928;2023-04-06T15:18:13;22.13;;;7.77;;
5612;SDS011;63463;53.586;9.928;2023-04-06T15:20:40;11.90;;;8.40;;
5612;SDS011;63463;53.586;9.928;2023-04-06T15:23:10;9.30;;;7.30;;
5612;SDS011;63463;53.586;9.928;2023-04-06T15:26:02;11.47;;;8.23;;
5612;SDS011;63463;53.586;9.928;2023-04-06T15:28:29;10.70;;;7.63;;
5612;SDS011;63463;53.586;9.928;2023-04-06T15:30:55;12.53;;;7.90;;
5612;SDS011;63463;53.586;9.928;2023-04-06T15:33:23;14.40;;;7.73;;
5612;SDS011;63463;53.586;9.928;2023-04-06T15:35:49;10.97;;;7.93;;
5612;SDS011;63463;53.586;9.928;2023-04-06T15:38:16;12.13;;;7.83;;
5612;SDS011;63463;53.586;9.928;2023-04-06T15:40:45;10.40;;;7.07;;
5612;SDS011;63463;53.586;9.928;2023-04-06T15:43:15;10.17;;;7.40;;
5612;SDS011;63463;53.586;9.928;2023-04-06T15:45:44;10.70;;;7.53;;
5612;SDS011;63463;53.586;9.928;2023-04-06T15:48:12;12.43;;;8.07;;
5612;SDS011;63463;53.586;9.928;2023-04-06T15:50:39;9.87;;;8.10;;
5612;SDS011;63463;53.586;9.928;2023-04-06T15:53:11;11.23;;;8.67;;
5612;SDS011;63463;53.586;9.928;2023-04-06T15:55:41;10.43;;;7.47;;
5612;SDS011;63463;53.586;9.928;2023-04-06T15:58:19;14.87;;;8.47;;
5612;SDS011;63463;53.586;9.928;2023-04-06T16:00:54;18.50;;;9.00;;
5612;SDS011;63463;53.586;9.928;2023-04-06T16:03:23;11.73;;;8.30;;
5612;SDS011;63463;53.586;9.928;2023-04-06T16:05:54;15.97;;;7.47;;
5612;SDS011;63463;53.586;9.928;2023-04-06T16:08:23;13.17;;;7.87;;